sensor_id;sensor_type;location;lat;lon;timestamp;P1;durP1;ratioP1;P2;durP2;ratioP2
16119;SDS011;12670;53.502;10.252;2023-01-28T00:01:30;5.27;;;1.67;;
16119;SDS011;12670;53.502;10.252;2023-01-28T00:04:33;2.13;;;1.43;;
16119;SDS011;12670;53.502;10.252;2023-01-28T00:07:35;4.57;;;1.60;;
16119;SDS011;12670;53.502;10.252;2023-01-28T00:10:38;6.17;;;1.80;;
16119;SDS011;12670;53.502;10.252;2023-01-28T00:13:42;3.13;;;1.47;;
16119;SDS011;12670;53.502;10.252;2023-01-28T00:16:44;3.00;;;1.17;;
16119;SDS011;12670;53.502;10.252;2023-01-28T00:19:47;4.10;;;1.37;;
16119;SDS011;12670;53.502;10.252;2023-01-28T00:22:50;4.83;;;1.57;;
16119;SDS011;12670;53.502;10.252;2023-01-28T00:25:52;3.53;;;1.30;;
16119;SDS011;12670;53.502;10.252;2023-01-28T00:28:57;4.17;;;1.40;;
16119;SDS011;12670;53.502;10.252;2023-01-28T00:31:59;5.73;;;1.40;;
16119;SDS011;12670;53.502;10.252;2023-01-28T00:35:02;2.70;;;1.30;;
16119;SDS011;12670;53.502;10.252;2023-01-28T00:38:05;2.83;;;1.50;;
16119;SDS011;12670;53.502;10.252;2023-01-28T00:41:09;6.50;;;1.70;;
16119;SDS011;12670;53.502;10.252;2023-01-28T00:44:15;3.87;;;1.40;;
16119;SDS011;12670;53.502;10.252;2023-01-28T00:47:17;3.77;;;1.40;;
16119;SDS011;12670;53.502;10.252;2023-01-28T00:50:21;5.67;;;1.60;;
16119;SDS011;12670;53.502;10.252;2023-01-28T00:53:24;2.50;;;1.17;;
16119;SDS011;12670;53.502;10.252;2023-01-28T00:56:27;1.93;;;1.20;;
16119;SDS011;12670;53.502;10.252;2023-01-28T00:59:31;5.13;;;1.67;;
16119;SDS011;12670;53.502;10.252;2023-01-28T01:02:33;1.77;;;1.30;;
16119;SDS011;12670;53.502;10.252;2023-01-28T01:05:36;3.07;;;1.53;;
16119;SDS011;12670;53.502;10.252;2023-01-28T01:08:39;3.43;;;1.40;;
16119;SDS011;12670;53.502;10.252;2023-01-28T01:11:43;2.43;;;1.30;;
16119;SDS011;12670;53.502;10.252;2023-01-28T01:14:47;2.83;;;1.27;;
16119;SDS011;12670;53.502;10.252;2023-01-28T01:17:50;4.37;;;1.30;;
16119;SDS011;12670;53.502;10.252;2023-01-28T01:20:53;2.47;;;1.23;;
16119;SDS011;12670;53.502;10.252;2023-01-28T01:23:58;3.00;;;1.40;;
16119;SDS011;12670;53.502;10.252;2023-01-28T01:27:01;4.70;;;1.30;;
16119;SDS011;12670;53.502;10.252;2023-01-28T01:30:08;3.40;;;1.43;;
16119;SDS011;12670;53.502;10.252;2023-01-28T01:33:11;5.60;;;1.50;;
16119;SDS011;12670;53.502;10.252;2023-01-28T01:36:15;2.80;;;1.23;;
16119;SDS011;12670;53.502;10.252;2023-01-28T01:39:19;7.03;;;1.50;;
16119;SDS011;12670;53.502;10.252;2023-01-28T01:42:22;2.60;;;1.30;;
16119;SDS011;12670;53.502;10.252;2023-01-28T01:45:28;3.87;;;1.70;;
16119;SDS011;12670;53.502;10.252;2023-01-28T01:48:34;3.53;;;1.57;;
16119;SDS011;12670;53.502;10.252;2023-01-28T01:51:37;1.97;;;1.30;;
16119;SDS011;12670;53.502;10.252;2023-01-28T01:54:41;2.87;;;1.50;;
16119;SDS011;12670;53.502;10.252;2023-01-28T01:57:48;3.33;;;1.23;;
16119;SDS011;12670;53.502;10.252;2023-01-28T02:00:57;3.50;;;1.60;;
16119;SDS011;12670;53.502;10.252;2023-01-28T02:04:02;3.10;;;1.20;;
16119;SDS011;12670;53.502;10.252;2023-01-28T02:07:07;2.67;;;1.30;;
16119;SDS011;12670;53.502;10.252;2023-01-28T02:10:13;2.70;;;1.63;;
16119;SDS011;12670;53.502;10.252;2023-01-28T02:13:16;2.33;;;1.33;;
16119;SDS011;12670;53.502;10.252;2023-01-28T02:16:21;3.30;;;1.50;;
16119;SDS011;12670;53.502;10.252;2023-01-28T02:19:26;4.17;;;1.23;;
16119;SDS011;12670;53.502;10.252;2023-01-28T02:22:43;2.00;;;1.47;;
16119;SDS011;12670;53.502;10.252;2023-01-28T02:29:40;2.87;;;1.33;;
16119;SDS011;12670;53.502;10.252;2023-01-28T02:32:50;5.80;;;1.40;;
16119;SDS011;12670;53.502;10.252;2023-01-28T02:35:57;2.80;;;1.20;;
16119;SDS011;12670;53.502;10.252;2023-01-28T02:39:08;3.33;;;1.30;;
16119;SDS011;12670;53.502;10.252;2023-01-28T02:42:16;2.93;;;1.30;;
16119;SDS011;12670;53.502;10.252;2023-01-28T02:45:22;2.07;;;1.10;;
16119;SDS011;12670;53.502;10.252;2023-01-28T02:48:48;5.73;;;1.50;;
16119;SDS011;12670;53.502;10.252;2023-01-28T02:51:59;3.87;;;1.30;;
16119;SDS011;12670;53.502;10.252;2023-01-28T02:55:12;1.97;;;1.23;;
16119;SDS011;12670;53.502;10.252;2023-01-28T02:58:25;3.83;;;1.60;;
16119;SDS011;12670;53.502;10.252;2023-01-28T03:01:39;2.20;;;1.13;;
16119;SDS011;12670;53.502;10.252;2023-01-28T03:04:50;2.73;;;1.50;;
16119;SDS011;12670;53.502;10.252;2023-01-28T03:08:00;5.40;;;1.50;;
16119;SDS011;12670;53.502;10.252;2023-01-28T03:11:24;4.07;;;1.50;;
16119;SDS011;12670;53.502;10.252;2023-01-28T03:14:48;1.97;;;1.30;;
16119;SDS011;12670;53.502;10.252;2023-01-28T03:18:14;2.13;;;1.20;;
16119;SDS011;12670;53.502;10.252;2023-01-28T03:21:37;2.20;;;1.33;;
16119;SDS011;12670;53.502;10.252;2023-01-28T03:25:01;3.87;;;1.20;;
16119;SDS011;12670;53.502;10.252;2023-01-28T03:28:21;1.83;;;1.30;;
16119;SDS011;12670;53.502;10.252;2023-01-28T03:31:42;5.50;;;1.53;;
16119;SDS011;12670;53.502;10.252;2023-01-28T03:35:04;6.87;;;1.30;;
16119;SDS011;12670;53.502;10.252;2023-01-28T03:38:27;4.47;;;1.50;;
16119;SDS011;12670;53.502;10.252;2023-01-28T03:41:34;2.60;;;1.40;;
16119;SDS011;12670;53.502;10.252;2023-01-28T03:44:36;4.43;;;1.50;;
16119;SDS011;12670;53.502;10.252;2023-01-28T03:47:52;3.33;;;1.47;;
16119;SDS011;12670;53.502;10.252;2023-01-28T03:50:56;3.53;;;1.50;;
16119;SDS011;12670;53.502;10.252;2023-01-28T03:54:00;2.70;;;1.33;;
16119;SDS011;12670;53.502;10.252;2023-01-28T03:57:03;2.53;;;1.50;;
16119;SDS011;12670;53.502;10.252;2023-01-28T04:00:06;3.33;;;1.30;;
16119;SDS011;12670;53.502;10.252;2023-01-28T04:03:12;2.57;;;1.43;;
16119;SDS011;12670;53.502;10.252;2023-01-28T04:06:19;2.37;;;1.33;;
16119;SDS011;12670;53.502;10.252;2023-01-28T04:09:21;1.93;;;1.20;;
16119;SDS011;12670;53.502;10.252;2023-01-28T04:12:24;5.03;;;1.40;;
16119;SDS011;12670;53.502;10.252;2023-01-28T04:15:27;2.47;;;1.40;;
16119;SDS011;12670;53.502;10.252;2023-01-28T04:18:31;3.70;;;1.30;;
16119;SDS011;12670;53.502;10.252;2023-01-28T04:21:35;2.00;;;1.30;;
16119;SDS011;12670;53.502;10.252;2023-01-28T04:24:37;3.20;;;1.50;;
16119;SDS011;12670;53.502;10.252;2023-01-28T04:27:40;9.03;;;1.60;;
16119;SDS011;12670;53.502;10.252;2023-01-28T04:30:42;3.20;;;1.60;;
16119;SDS011;12670;53.502;10.252;2023-01-28T04:33:45;2.57;;;1.40;;
16119;SDS011;12670;53.502;10.252;2023-01-28T04:36:49;3.07;;;1.40;;
16119;SDS011;12670;53.502;10.252;2023-01-28T04:39:52;6.83;;;1.53;;
16119;SDS011;12670;53.502;10.252;2023-01-28T04:42:54;3.90;;;1.63;;
16119;SDS011;12670;53.502;10.252;2023-01-28T04:45:58;3.37;;;1.80;;
16119;SDS011;12670;53.502;10.252;2023-01-28T04:49:00;3.23;;;1.63;;
16119;SDS011;12670;53.502;10.252;2023-01-28T04:52:05;3.63;;;1.57;;
16119;SDS011;12670;53.502;10.252;2023-01-28T04:55:08;3.57;;;1.80;;
16119;SDS011;12670;53.502;10.252;2023-01-28T04:58:11;5.73;;;1.50;;
16119;SDS011;12670;53.502;10.252;2023-01-28T05:01:14;6.73;;;2.63;;
16119;SDS011;12670;53.502;10.252;2023-01-28T05:04:17;4.97;;;2.07;;
16119;SDS011;12670;53.502;10.252;2023-01-28T05:07:21;11.13;;;2.33;;
16119;SDS011;12670;53.502;10.252;2023-01-28T05:10:24;2.73;;;1.80;;
16119;SDS011;12670;53.502;10.252;2023-01-28T05:13:28;2.50;;;1.67;;
16119;SDS011;12670;53.502;10.252;2023-01-28T05:16:30;4.07;;;1.97;;
16119;SDS011;12670;53.502;10.252;2023-01-28T05:19:35;3.93;;;1.83;;
16119;SDS011;12670;53.502;10.252;2023-01-28T05:22:39;4.40;;;1.87;;
16119;SDS011;12670;53.502;10.252;2023-01-28T05:25:42;3.70;;;2.10;;
16119;SDS011;12670;53.502;10.252;2023-01-28T05:28:46;3.27;;;1.80;;
16119;SDS011;12670;53.502;10.252;2023-01-28T05:31:48;3.70;;;1.80;;
16119;SDS011;12670;53.502;10.252;2023-01-28T05:34:51;2.77;;;1.70;;
16119;SDS011;12670;53.502;10.252;2023-01-28T05:37:55;3.93;;;1.63;;
16119;SDS011;12670;53.502;10.252;2023-01-28T05:40:57;5.40;;;1.60;;
16119;SDS011;12670;53.502;10.252;2023-01-28T05:44:00;5.33;;;1.60;;
16119;SDS011;12670;53.502;10.252;2023-01-28T05:47:03;4.03;;;1.97;;
16119;SDS011;12670;53.502;10.252;2023-01-28T05:50:06;3.40;;;1.97;;
16119;SDS011;12670;53.502;10.252;2023-01-28T05:53:11;4.00;;;2.03;;
16119;SDS011;12670;53.502;10.252;2023-01-28T05:56:13;4.30;;;2.00;;
16119;SDS011;12670;53.502;10.252;2023-01-28T05:59:16;7.73;;;2.20;;
16119;SDS011;12670;53.502;10.252;2023-01-28T06:02:19;3.70;;;1.90;;
16119;SDS011;12670;53.502;10.252;2023-01-28T06:05:21;4.60;;;2.00;;
16119;SDS011;12670;53.502;10.252;2023-01-28T06:08:26;4.00;;;1.70;;
16119;SDS011;12670;53.502;10.252;2023-01-28T06:11:28;3.93;;;1.83;;
16119;SDS011;12670;53.502;10.252;2023-01-28T06:14:31;4.17;;;2.07;;
16119;SDS011;12670;53.502;10.252;2023-01-28T06:17:33;6.13;;;2.50;;
16119;SDS011;12670;53.502;10.252;2023-01-28T06:20:36;6.07;;;2.13;;
16119;SDS011;12670;53.502;10.252;2023-01-28T06:23:40;3.27;;;2.00;;
16119;SDS011;12670;53.502;10.252;2023-01-28T06:26:42;6.67;;;1.80;;
16119;SDS011;12670;53.502;10.252;2023-01-28T06:29:45;4.17;;;2.07;;
16119;SDS011;12670;53.502;10.252;2023-01-28T06:32:52;2.67;;;1.97;;
16119;SDS011;12670;53.502;10.252;2023-01-28T06:35:55;3.90;;;1.90;;
16119;SDS011;12670;53.502;10.252;2023-01-28T06:38:59;4.90;;;1.97;;
16119;SDS011;12670;53.502;10.252;2023-01-28T06:42:02;4.33;;;1.80;;
16119;SDS011;12670;53.502;10.252;2023-01-28T06:45:05;3.77;;;2.03;;
16119;SDS011;12670;53.502;10.252;2023-01-28T06:48:08;4.93;;;2.03;;
16119;SDS011;12670;53.502;10.252;2023-01-28T06:51:10;4.13;;;2.00;;
16119;SDS011;12670;53.502;10.252;2023-01-28T06:54:14;6.47;;;2.63;;
16119;SDS011;12670;53.502;10.252;2023-01-28T06:57:17;8.37;;;2.43;;
16119;SDS011;12670;53.502;10.252;2023-01-28T07:00:20;6.07;;;2.73;;
16119;SDS011;12670;53.502;10.252;2023-01-28T07:03:23;7.37;;;2.93;;
16119;SDS011;12670;53.502;10.252;2023-01-28T07:06:25;15.67;;;4.23;;
16119;SDS011;12670;53.502;10.252;2023-01-28T07:09:29;8.33;;;2.97;;
16119;SDS011;12670;53.502;10.252;2023-01-28T07:12:32;9.50;;;3.30;;
16119;SDS011;12670;53.502;10.252;2023-01-28T07:15:35;4.40;;;2.10;;
16119;SDS011;12670;53.502;10.252;2023-01-28T07:18:38;4.07;;;2.10;;
16119;SDS011;12670;53.502;10.252;2023-01-28T07:21:40;6.73;;;2.50;;
16119;SDS011;12670;53.502;10.252;2023-01-28T07:24:44;5.03;;;2.30;;
16119;SDS011;12670;53.502;10.252;2023-01-28T07:27:47;5.93;;;2.30;;
16119;SDS011;12670;53.502;10.252;2023-01-28T07:30:51;4.73;;;2.17;;
16119;SDS011;12670;53.502;10.252;2023-01-28T07:33:54;7.13;;;3.63;;
16119;SDS011;12670;53.502;10.252;2023-01-28T07:36:57;24.73;;;12.07;;
16119;SDS011;12670;53.502;10.252;2023-01-28T07:40:01;16.90;;;7.40;;
16119;SDS011;12670;53.502;10.252;2023-01-28T07:43:04;14.43;;;6.77;;
16119;SDS011;12670;53.502;10.252;2023-01-28T07:46:07;13.37;;;5.87;;
16119;SDS011;12670;53.502;10.252;2023-01-28T07:49:09;9.83;;;4.07;;
16119;SDS011;12670;53.502;10.252;2023-01-28T07:52:12;6.43;;;2.97;;
16119;SDS011;12670;53.502;10.252;2023-01-28T07:55:16;11.07;;;2.57;;
16119;SDS011;12670;53.502;10.252;2023-01-28T07:58:19;5.90;;;2.13;;
16119;SDS011;12670;53.502;10.252;2023-01-28T08:01:22;9.97;;;2.60;;
16119;SDS011;12670;53.502;10.252;2023-01-28T08:04:25;3.97;;;2.40;;
16119;SDS011;12670;53.502;10.252;2023-01-28T08:07:27;10.57;;;5.40;;
16119;SDS011;12670;53.502;10.252;2023-01-28T08:10:31;9.57;;;4.30;;
16119;SDS011;12670;53.502;10.252;2023-01-28T08:13:34;9.20;;;4.78;;
16119;SDS011;12670;53.502;10.252;2023-01-28T08:16:37;9.07;;;5.97;;
16119;SDS011;12670;53.502;10.252;2023-01-28T08:19:39;7.90;;;5.47;;
16119;SDS011;12670;53.502;10.252;2023-01-28T08:22:42;7.33;;;4.63;;
16119;SDS011;12670;53.502;10.252;2023-01-28T08:25:46;9.17;;;4.43;;
16119;SDS011;12670;53.502;10.252;2023-01-28T08:28:49;6.67;;;4.10;;
16119;SDS011;12670;53.502;10.252;2023-01-28T08:31:52;7.60;;;4.80;;
16119;SDS011;12670;53.502;10.252;2023-01-28T08:34:54;9.57;;;4.97;;
16119;SDS011;12670;53.502;10.252;2023-01-28T08:37:57;12.67;;;5.63;;
16119;SDS011;12670;53.502;10.252;2023-01-28T08:41:02;8.13;;;5.00;;
16119;SDS011;12670;53.502;10.252;2023-01-28T08:44:05;9.70;;;4.33;;
16119;SDS011;12670;53.502;10.252;2023-01-28T08:47:08;10.20;;;5.17;;
16119;SDS011;12670;53.502;10.252;2023-01-28T08:50:10;12.37;;;6.73;;
16119;SDS011;12670;53.502;10.252;2023-01-28T08:53:14;10.20;;;5.60;;
16119;SDS011;12670;53.502;10.252;2023-01-28T08:56:19;13.37;;;5.70;;
16119;SDS011;12670;53.502;10.252;2023-01-28T08:59:22;15.57;;;7.23;;
16119;SDS011;12670;53.502;10.252;2023-01-28T09:02:25;12.87;;;5.47;;
16119;SDS011;12670;53.502;10.252;2023-01-28T09:05:32;8.27;;;4.67;;
16119;SDS011;12670;53.502;10.252;2023-01-28T09:08:35;10.67;;;5.30;;
16119;SDS011;12670;53.502;10.252;2023-01-28T09:11:39;9.10;;;5.23;;
16119;SDS011;12670;53.502;10.252;2023-01-28T09:14:42;11.90;;;5.63;;
16119;SDS011;12670;53.502;10.252;2023-01-28T09:17:45;9.77;;;5.30;;
16119;SDS011;12670;53.502;10.252;2023-01-28T09:20:47;9.10;;;4.80;;
16119;SDS011;12670;53.502;10.252;2023-01-28T09:23:50;11.07;;;5.60;;
16119;SDS011;12670;53.502;10.252;2023-01-28T09:26:57;10.00;;;5.53;;
16119;SDS011;12670;53.502;10.252;2023-01-28T09:29:59;9.57;;;6.03;;
16119;SDS011;12670;53.502;10.252;2023-01-28T09:33:02;12.60;;;6.47;;
16119;SDS011;12670;53.502;10.252;2023-01-28T09:36:06;8.77;;;6.47;;
16119;SDS011;12670;53.502;10.252;2023-01-28T09:39:09;13.03;;;6.50;;
16119;SDS011;12670;53.502;10.252;2023-01-28T09:42:20;10.73;;;6.17;;
16119;SDS011;12670;53.502;10.252;2023-01-28T09:45:35;12.30;;;6.20;;
16119;SDS011;12670;53.502;10.252;2023-01-28T09:48:42;11.93;;;6.97;;
16119;SDS011;12670;53.502;10.252;2023-01-28T09:51:49;13.37;;;6.10;;
16119;SDS011;12670;53.502;10.252;2023-01-28T09:54:55;7.97;;;5.77;;
16119;SDS011;12670;53.502;10.252;2023-01-28T09:58:06;11.70;;;6.43;;
16119;SDS011;12670;53.502;10.252;2023-01-28T10:01:19;16.40;;;6.63;;
16119;SDS011;12670;53.502;10.252;2023-01-28T10:04:43;11.17;;;6.63;;
16119;SDS011;12670;53.502;10.252;2023-01-28T10:07:55;14.23;;;6.67;;
16119;SDS011;12670;53.502;10.252;2023-01-28T10:11:10;11.87;;;7.23;;
16119;SDS011;12670;53.502;10.252;2023-01-28T10:14:23;19.50;;;6.70;;
16119;SDS011;12670;53.502;10.252;2023-01-28T10:17:36;10.03;;;6.63;;
16119;SDS011;12670;53.502;10.252;2023-01-28T10:20:42;11.53;;;6.57;;
16119;SDS011;12670;53.502;10.252;2023-01-28T10:23:51;10.90;;;6.73;;
16119;SDS011;12670;53.502;10.252;2023-01-28T10:26:59;10.77;;;6.50;;
16119;SDS011;12670;53.502;10.252;2023-01-28T10:30:14;12.57;;;6.67;;
16119;SDS011;12670;53.502;10.252;2023-01-28T10:33:21;10.53;;;6.27;;
16119;SDS011;12670;53.502;10.252;2023-01-28T10:36:30;11.13;;;5.90;;
16119;SDS011;12670;53.502;10.252;2023-01-28T10:39:33;11.03;;;6.17;;
16119;SDS011;12670;53.502;10.252;2023-01-28T10:42:37;10.87;;;5.90;;
16119;SDS011;12670;53.502;10.252;2023-01-28T10:45:42;9.93;;;5.70;;
16119;SDS011;12670;53.502;10.252;2023-01-28T10:48:56;11.43;;;6.10;;
16119;SDS011;12670;53.502;10.252;2023-01-28T10:52:09;9.37;;;5.80;;
16119;SDS011;12670;53.502;10.252;2023-01-28T10:55:13;9.67;;;6.10;;
16119;SDS011;12670;53.502;10.252;2023-01-28T10:58:16;9.70;;;5.67;;
16119;SDS011;12670;53.502;10.252;2023-01-28T11:01:23;8.67;;;5.67;;
16119;SDS011;12670;53.502;10.252;2023-01-28T11:04:26;13.83;;;5.83;;
16119;SDS011;12670;53.502;10.252;2023-01-28T11:07:31;9.23;;;6.17;;
16119;SDS011;12670;53.502;10.252;2023-01-28T11:10:34;11.23;;;6.10;;
16119;SDS011;12670;53.502;10.252;2023-01-28T11:13:39;11.90;;;5.67;;
16119;SDS011;12670;53.502;10.252;2023-01-28T11:16:52;10.57;;;5.40;;
16119;SDS011;12670;53.502;10.252;2023-01-28T11:19:58;12.10;;;5.77;;
16119;SDS011;12670;53.502;10.252;2023-01-28T11:23:16;11.00;;;5.20;;
16119;SDS011;12670;53.502;10.252;2023-01-28T11:26:23;11.27;;;5.87;;
16119;SDS011;12670;53.502;10.252;2023-01-28T11:29:29;8.33;;;5.10;;
16119;SDS011;12670;53.502;10.252;2023-01-28T11:32:34;18.13;;;5.17;;
16119;SDS011;12670;53.502;10.252;2023-01-28T11:35:37;6.30;;;4.53;;
16119;SDS011;12670;53.502;10.252;2023-01-28T11:38:46;7.33;;;4.93;;
16119;SDS011;12670;53.502;10.252;2023-01-28T11:41:50;7.93;;;5.00;;
16119;SDS011;12670;53.502;10.252;2023-01-28T11:44:54;11.83;;;5.73;;
16119;SDS011;12670;53.502;10.252;2023-01-28T11:48:04;10.20;;;5.97;;
16119;SDS011;12670;53.502;10.252;2023-01-28T11:51:22;11.57;;;6.20;;
16119;SDS011;12670;53.502;10.252;2023-01-28T11:54:38;8.70;;;5.43;;
16119;SDS011;12670;53.502;10.252;2023-01-28T11:57:49;21.33;;;10.67;;
16119;SDS011;12670;53.502;10.252;2023-01-28T12:01:00;28.73;;;13.80;;
16119;SDS011;12670;53.502;10.252;2023-01-28T12:07:46;7.33;;;5.40;;
16119;SDS011;12670;53.502;10.252;2023-01-28T12:11:05;9.37;;;5.13;;
16119;SDS011;12670;53.502;10.252;2023-01-28T12:14:22;9.30;;;5.73;;
16119;SDS011;12670;53.502;10.252;2023-01-28T12:17:31;14.00;;;5.87;;
16119;SDS011;12670;53.502;10.252;2023-01-28T12:20:45;8.33;;;5.73;;
16119;SDS011;12670;53.502;10.252;2023-01-28T12:24:00;16.07;;;5.37;;
16119;SDS011;12670;53.502;10.252;2023-01-28T12:27:19;6.70;;;4.83;;
16119;SDS011;12670;53.502;10.252;2023-01-28T12:30:38;8.10;;;5.17;;
16119;SDS011;12670;53.502;10.252;2023-01-28T12:33:54;6.80;;;4.53;;
16119;SDS011;12670;53.502;10.252;2023-01-28T12:37:11;14.87;;;5.40;;
16119;SDS011;12670;53.502;10.252;2023-01-28T12:40:26;10.57;;;4.80;;
16119;SDS011;12670;53.502;10.252;2023-01-28T12:43:51;11.03;;;5.40;;
16119;SDS011;12670;53.502;10.252;2023-01-28T12:47:00;10.00;;;5.37;;
16119;SDS011;12670;53.502;10.252;2023-01-28T12:50:10;7.17;;;4.57;;
16119;SDS011;12670;53.502;10.252;2023-01-28T12:53:22;6.67;;;4.53;;
16119;SDS011;12670;53.502;10.252;2023-01-28T12:56:30;8.30;;;5.00;;
16119;SDS011;12670;53.502;10.252;2023-01-28T12:59:37;11.07;;;5.10;;
16119;SDS011;12670;53.502;10.252;2023-01-28T13:02:44;8.30;;;4.80;;
16119;SDS011;12670;53.502;10.252;2023-01-28T13:05:52;7.27;;;4.90;;
16119;SDS011;12670;53.502;10.252;2023-01-28T13:09:01;10.17;;;4.90;;
16119;SDS011;12670;53.502;10.252;2023-01-28T13:12:17;10.87;;;5.10;;
16119;SDS011;12670;53.502;10.252;2023-01-28T13:15:22;7.37;;;4.80;;
16119;SDS011;12670;53.502;10.252;2023-01-28T13:18:30;6.03;;;4.50;;
16119;SDS011;12670;53.502;10.252;2023-01-28T13:21:44;9.47;;;5.03;;
16119;SDS011;12670;53.502;10.252;2023-01-28T13:24:51;13.77;;;5.53;;
16119;SDS011;12670;53.502;10.252;2023-01-28T13:27:54;12.20;;;5.43;;
16119;SDS011;12670;53.502;10.252;2023-01-28T13:31:00;14.87;;;6.50;;
16119;SDS011;12670;53.502;10.252;2023-01-28T13:34:04;11.10;;;6.33;;
16119;SDS011;12670;53.502;10.252;2023-01-28T13:37:16;8.50;;;5.03;;
16119;SDS011;12670;53.502;10.252;2023-01-28T13:40:27;9.80;;;4.70;;
16119;SDS011;12670;53.502;10.252;2023-01-28T13:43:35;10.97;;;5.30;;
16119;SDS011;12670;53.502;10.252;2023-01-28T13:46:39;8.60;;;5.37;;
16119;SDS011;12670;53.502;10.252;2023-01-28T13:49:42;10.33;;;4.70;;
16119;SDS011;12670;53.502;10.252;2023-01-28T13:52:49;7.10;;;4.27;;
16119;SDS011;12670;53.502;10.252;2023-01-28T13:55:57;6.23;;;4.40;;
16119;SDS011;12670;53.502;10.252;2023-01-28T14:10:29;10.10;;;5.23;;
16119;SDS011;12670;53.502;10.252;2023-01-28T14:13:40;11.07;;;6.00;;
16119;SDS011;12670;53.502;10.252;2023-01-28T14:17:02;13.93;;;5.90;;
16119;SDS011;12670;53.502;10.252;2023-01-28T14:20:16;10.37;;;6.40;;
16119;SDS011;12670;53.502;10.252;2023-01-28T14:23:22;13.00;;;7.00;;
16119;SDS011;12670;53.502;10.252;2023-01-28T14:26:32;12.83;;;6.87;;
16119;SDS011;12670;53.502;10.252;2023-01-28T14:29:48;11.90;;;6.93;;
16119;SDS011;12670;53.502;10.252;2023-01-28T14:32:59;13.07;;;6.67;;
16119;SDS011;12670;53.502;10.252;2023-01-28T14:36:03;11.57;;;7.17;;
16119;SDS011;12670;53.502;10.252;2023-01-28T14:39:10;15.03;;;8.07;;
16119;SDS011;12670;53.502;10.252;2023-01-28T14:42:19;11.23;;;7.63;;
16119;SDS011;12670;53.502;10.252;2023-01-28T14:45:31;15.37;;;8.70;;
16119;SDS011;12670;53.502;10.252;2023-01-28T14:48:48;14.23;;;8.13;;
16119;SDS011;12670;53.502;10.252;2023-01-28T14:52:00;12.33;;;7.80;;
16119;SDS011;12670;53.502;10.252;2023-01-28T14:55:17;17.93;;;8.30;;
16119;SDS011;12670;53.502;10.252;2023-01-28T14:58:31;16.60;;;9.37;;
16119;SDS011;12670;53.502;10.252;2023-01-28T15:01:43;15.93;;;9.30;;
16119;SDS011;12670;53.502;10.252;2023-01-28T15:04:47;18.47;;;10.10;;
16119;SDS011;12670;53.502;10.252;2023-01-28T15:07:50;17.90;;;9.93;;
16119;SDS011;12670;53.502;10.252;2023-01-28T15:10:53;17.30;;;9.77;;
16119;SDS011;12670;53.502;10.252;2023-01-28T15:13:56;17.97;;;10.40;;
16119;SDS011;12670;53.502;10.252;2023-01-28T15:17:02;17.63;;;9.87;;
16119;SDS011;12670;53.502;10.252;2023-01-28T15:20:05;19.43;;;10.77;;
16119;SDS011;12670;53.502;10.252;2023-01-28T15:23:11;19.73;;;10.00;;
16119;SDS011;12670;53.502;10.252;2023-01-28T15:26:22;22.00;;;10.47;;
16119;SDS011;12670;53.502;10.252;2023-01-28T15:29:30;20.17;;;10.30;;
16119;SDS011;12670;53.502;10.252;2023-01-28T15:32:35;18.37;;;10.37;;
16119;SDS011;12670;53.502;10.252;2023-01-28T15:35:44;14.77;;;9.80;;
16119;SDS011;12670;53.502;10.252;2023-01-28T15:38:48;20.30;;;11.40;;
16119;SDS011;12670;53.502;10.252;2023-01-28T15:41:51;18.53;;;10.70;;
16119;SDS011;12670;53.502;10.252;2023-01-28T15:44:57;16.63;;;9.90;;
16119;SDS011;12670;53.502;10.252;2023-01-28T15:48:04;18.10;;;10.47;;
16119;SDS011;12670;53.502;10.252;2023-01-28T15:51:17;19.87;;;10.90;;
16119;SDS011;12670;53.502;10.252;2023-01-28T15:54:21;21.43;;;12.47;;
16119;SDS011;12670;53.502;10.252;2023-01-28T15:57:26;19.03;;;11.13;;
16119;SDS011;12670;53.502;10.252;2023-01-28T16:00:31;18.07;;;11.00;;
16119;SDS011;12670;53.502;10.252;2023-01-28T16:03:36;18.67;;;11.00;;
16119;SDS011;12670;53.502;10.252;2023-01-28T16:06:40;19.03;;;11.50;;
16119;SDS011;12670;53.502;10.252;2023-01-28T16:09:42;17.17;;;10.47;;
16119;SDS011;12670;53.502;10.252;2023-01-28T16:12:47;21.43;;;11.07;;
16119;SDS011;12670;53.502;10.252;2023-01-28T16:15:53;21.10;;;11.80;;
16119;SDS011;12670;53.502;10.252;2023-01-28T16:18:59;19.77;;;11.03;;
16119;SDS011;12670;53.502;10.252;2023-01-28T16:22:04;19.67;;;11.20;;
16119;SDS011;12670;53.502;10.252;2023-01-28T16:25:25;18.13;;;11.13;;
16119;SDS011;12670;53.502;10.252;2023-01-28T16:28:29;19.33;;;10.90;;
16119;SDS011;12670;53.502;10.252;2023-01-28T16:31:32;19.47;;;11.77;;
16119;SDS011;12670;53.502;10.252;2023-01-28T16:34:37;18.20;;;11.23;;
16119;SDS011;12670;53.502;10.252;2023-01-28T16:37:42;19.37;;;12.20;;
16119;SDS011;12670;53.502;10.252;2023-01-28T16:40:45;21.63;;;12.70;;
16119;SDS011;12670;53.502;10.252;2023-01-28T16:43:48;22.40;;;12.13;;
16119;SDS011;12670;53.502;10.252;2023-01-28T16:46:51;23.40;;;13.97;;
16119;SDS011;12670;53.502;10.252;2023-01-28T16:49:55;22.77;;;13.73;;
16119;SDS011;12670;53.502;10.252;2023-01-28T16:52:57;22.93;;;13.97;;
16119;SDS011;12670;53.502;10.252;2023-01-28T16:56:01;27.07;;;14.20;;
16119;SDS011;12670;53.502;10.252;2023-01-28T16:59:03;24.27;;;14.93;;
16119;SDS011;12670;53.502;10.252;2023-01-28T17:02:07;25.53;;;14.13;;
16119;SDS011;12670;53.502;10.252;2023-01-28T17:05:13;26.33;;;14.90;;
16119;SDS011;12670;53.502;10.252;2023-01-28T17:08:17;30.10;;;16.30;;
16119;SDS011;12670;53.502;10.252;2023-01-28T17:11:19;28.13;;;16.07;;
16119;SDS011;12670;53.502;10.252;2023-01-28T17:14:22;26.03;;;15.33;;
16119;SDS011;12670;53.502;10.252;2023-01-28T17:17:25;30.87;;;15.97;;
16119;SDS011;12670;53.502;10.252;2023-01-28T17:20:29;27.00;;;14.77;;
16119;SDS011;12670;53.502;10.252;2023-01-28T17:23:32;25.20;;;14.50;;
16119;SDS011;12670;53.502;10.252;2023-01-28T17:26:35;25.37;;;14.90;;
16119;SDS011;12670;53.502;10.252;2023-01-28T17:29:38;26.17;;;15.13;;
16119;SDS011;12670;53.502;10.252;2023-01-28T17:32:41;27.63;;;14.73;;
16119;SDS011;12670;53.502;10.252;2023-01-28T17:35:46;25.80;;;14.27;;
16119;SDS011;12670;53.502;10.252;2023-01-28T17:38:49;30.07;;;15.57;;
16119;SDS011;12670;53.502;10.252;2023-01-28T17:41:52;25.33;;;14.57;;
16119;SDS011;12670;53.502;10.252;2023-01-28T17:44:55;29.33;;;15.33;;
16119;SDS011;12670;53.502;10.252;2023-01-28T17:48:03;28.83;;;16.20;;
16119;SDS011;12670;53.502;10.252;2023-01-28T17:51:07;34.40;;;17.77;;
16119;SDS011;12670;53.502;10.252;2023-01-28T17:54:10;34.60;;;16.40;;
16119;SDS011;12670;53.502;10.252;2023-01-28T17:57:12;30.50;;;16.60;;
16119;SDS011;12670;53.502;10.252;2023-01-28T18:00:15;30.23;;;16.77;;
16119;SDS011;12670;53.502;10.252;2023-01-28T18:03:19;29.33;;;16.17;;
16119;SDS011;12670;53.502;10.252;2023-01-28T18:06:23;28.37;;;15.10;;
16119;SDS011;12670;53.502;10.252;2023-01-28T18:09:26;30.83;;;15.60;;
16119;SDS011;12670;53.502;10.252;2023-01-28T18:12:29;28.80;;;15.30;;
16119;SDS011;12670;53.502;10.252;2023-01-28T18:15:32;27.57;;;15.37;;
16119;SDS011;12670;53.502;10.252;2023-01-28T18:18:34;27.27;;;15.13;;
16119;SDS011;12670;53.502;10.252;2023-01-28T18:21:39;33.23;;;17.67;;
16119;SDS011;12670;53.502;10.252;2023-01-28T18:24:53;29.20;;;15.70;;
16119;SDS011;12670;53.502;10.252;2023-01-28T18:27:56;34.17;;;17.87;;
16119;SDS011;12670;53.502;10.252;2023-01-28T18:31:03;37.30;;;18.83;;
16119;SDS011;12670;53.502;10.252;2023-01-28T18:34:06;29.73;;;16.80;;